sensor_id;sensor_type;location;lat;lon;timestamp;pressure;altitude;pressure_sealevel;temperature;humidity
48872;BME280;36154;51.674;7.824;2023-05-10T00:01:46;99943.00;;;22.97;52.32
48872;BME280;36154;51.674;7.824;2023-05-10T00:04:12;99940.28;;;23.00;52.25
48872;BME280;36154;51.674;7.824;2023-05-10T00:06:37;99934.28;;;22.98;52.18
48872;BME280;36154;51.674;7.824;2023-05-10T00:09:02;99941.16;;;22.99;51.82
48872;BME280;36154;51.674;7.824;2023-05-10T00:11:28;99935.97;;;22.99;51.90
48872;BME280;36154;51.674;7.824;2023-05-10T00:13:53;99938.56;;;22.99;52.16
48872;BME280;36154;51.674;7.824;2023-05-10T00:16:19;99938.56;;;22.99;52.06
48872;BME280;36154;51.674;7.824;2023-05-10T00:18:44;99936.81;;;22.99;52.13
48872;BME280;36154;51.674;7.824;2023-05-10T00:21:09;99937.75;;;22.98;52.15
48872;BME280;36154;51.674;7.824;2023-05-10T00:23:35;99934.28;;;22.98;52.11
48872;BME280;36154;51.674;7.824;2023-05-10T00:26:00;99937.75;;;22.98;51.97
48872;BME280;36154;51.674;7.824;2023-05-10T00:28:27;99935.16;;;22.98;52.09
48872;BME280;36154;51.674;7.824;2023-05-10T00:30:52;99940.34;;;22.98;51.86
48872;BME280;36154;51.674;7.824;2023-05-10T00:33:17;99941.16;;;22.99;52.19
48872;BME280;36154;51.674;7.824;2023-05-10T00:35:43;99936.88;;;22.98;51.73
48872;BME280;36154;51.674;7.824;2023-05-10T00:38:08;99939.47;;;22.98;52.17
48872;BME280;36154;51.674;7.824;2023-05-10T00:40:35;99930.78;;;22.99;51.99
48872;BME280;36154;51.674;7.824;2023-05-10T00:43:01;99930.78;;;22.99;51.86
48872;BME280;36154;51.674;7.824;2023-05-10T00:45:26;99925.59;;;22.99;52.14
48872;BME280;36154;51.674;7.824;2023-05-10T00:47:52;99933.38;;;22.99;52.06
48872;BME280;36154;51.674;7.824;2023-05-10T00:50:20;99922.22;;;22.97;52.15
48872;BME280;36154;51.674;7.824;2023-05-10T00:52:46;99925.72;;;22.96;52.06
48872;BME280;36154;51.674;7.824;2023-05-10T00:55:11;99920.53;;;22.96;51.98
48872;BME280;36154;51.674;7.824;2023-05-10T00:57:37;99930.78;;;22.99;52.17
48872;BME280;36154;51.674;7.824;2023-05-10T01:00:03;99925.72;;;22.96;51.88
48872;BME280;36154;51.674;7.824;2023-05-10T01:02:28;99923.88;;;22.98;51.92
48872;BME280;36154;51.674;7.824;2023-05-10T01:04:54;99923.88;;;22.98;52.08
48872;BME280;36154;51.674;7.824;2023-05-10T01:07:19;99923.88;;;22.98;52.10
48872;BME280;36154;51.674;7.824;2023-05-10T01:09:45;99917.03;;;22.97;52.09
48872;BME280;36154;51.674;7.824;2023-05-10T01:12:11;99916.09;;;22.98;52.05
48872;BME280;36154;51.674;7.824;2023-05-10T01:14:36;99923.88;;;22.98;52.01
48872;BME280;36154;51.674;7.824;2023-05-10T01:17:03;99918.69;;;22.98;52.12
48872;BME280;36154;51.674;7.824;2023-05-10T01:19:29;99923.88;;;22.98;51.90
48872;BME280;36154;51.674;7.824;2023-05-10T01:22:04;99931.69;;;22.98;51.90
48872;BME280;36154;51.674;7.824;2023-05-10T01:27:37;99923.06;;;22.97;51.94
48872;BME280;36154;51.674;7.824;2023-05-10T01:33:00;99930.94;;;22.96;51.98
48872;BME280;36154;51.674;7.824;2023-05-10T01:38:29;99936.13;;;22.96;52.19
48872;BME280;36154;51.674;7.824;2023-05-10T01:41:28;99937.03;;;22.95;52.07
48872;BME280;36154;51.674;7.824;2023-05-10T01:44:09;99938.78;;;22.94;51.97
48872;BME280;36154;51.674;7.824;2023-05-10T01:46:38;99940.56;;;22.94;51.90
48872;BME280;36154;51.674;7.824;2023-05-10T01:49:16;99932.78;;;22.94;52.18
48872;BME280;36154;51.674;7.824;2023-05-10T01:51:50;99940.56;;;22.94;51.88
48872;BME280;36154;51.674;7.824;2023-05-10T01:54:19;99942.34;;;22.93;52.04
48872;BME280;36154;51.674;7.824;2023-05-10T01:56:48;99941.47;;;22.93;52.12
48872;BME280;36154;51.674;7.824;2023-05-10T01:59:17;99944.06;;;22.93;51.91
48872;BME280;36154;51.674;7.824;2023-05-10T02:01:44;99947.41;;;22.95;51.81
48872;BME280;36154;51.674;7.824;2023-05-10T02:04:11;99948.34;;;22.94;52.01
48872;BME280;36154;51.674;7.824;2023-05-10T02:06:40;99953.56;;;22.94;51.93
48872;BME280;36154;51.674;7.824;2023-05-10T02:09:08;99947.41;;;22.95;51.69
48872;BME280;36154;51.674;7.824;2023-05-10T02:11:37;99952.63;;;22.95;51.95
48872;BME280;36154;51.674;7.824;2023-05-10T02:14:06;99946.59;;;22.94;51.95
48872;BME280;36154;51.674;7.824;2023-05-10T02:16:32;99957.91;;;22.93;51.98
48872;BME280;36154;51.674;7.824;2023-05-10T02:19:01;99958.75;;;22.94;51.84
48872;BME280;36154;51.674;7.824;2023-05-10T02:21:28;99960.41;;;22.95;51.91
48872;BME280;36154;51.674;7.824;2023-05-10T02:23:54;99955.22;;;22.95;51.83
48872;BME280;36154;51.674;7.824;2023-05-10T02:26:21;99953.56;;;22.94;52.03
48872;BME280;36154;51.674;7.824;2023-05-10T02:28:49;99960.41;;;22.95;52.01
48872;BME280;36154;51.674;7.824;2023-05-10T02:31:15;99957.81;;;22.95;52.00
48872;BME280;36154;51.674;7.824;2023-05-10T02:33:42;99960.41;;;22.95;51.78
48872;BME280;36154;51.674;7.824;2023-05-10T02:36:09;99965.59;;;22.95;52.05
48872;BME280;36154;51.674;7.824;2023-05-10T02:38:36;99970.81;;;22.95;51.93
48872;BME280;36154;51.674;7.824;2023-05-10T02:41:04;99963.94;;;22.94;51.95
48872;BME280;36154;51.674;7.824;2023-05-10T02:43:32;99969.13;;;22.94;52.00
48872;BME280;36154;51.674;7.824;2023-05-10T02:45:58;99986.38;;;22.95;51.69
48872;BME280;36154;51.674;7.824;2023-05-10T02:48:23;99969.13;;;22.94;51.61
48872;BME280;36154;51.674;7.824;2023-05-10T02:50:50;99973.41;;;22.95;51.86
48872;BME280;36154;51.674;7.824;2023-05-10T02:53:30;99979.53;;;22.94;52.08
48872;BME280;36154;51.674;7.824;2023-05-10T02:55:59;99974.34;;;22.94;51.71
48872;BME280;36154;51.674;7.824;2023-05-10T02:58:26;99988.22;;;22.93;51.87
48872;BME280;36154;51.674;7.824;2023-05-10T03:00:51;99983.88;;;22.93;51.71
48872;BME280;36154;51.674;7.824;2023-05-10T03:03:17;99984.72;;;22.94;51.81
48872;BME280;36154;51.674;7.824;2023-05-10T03:05:42;99993.34;;;22.94;51.96
48872;BME280;36154;51.674;7.824;2023-05-10T03:08:08;99991.69;;;22.93;51.66
48872;BME280;36154;51.674;7.824;2023-05-10T03:10:39;99985.69;;;22.91;51.81
48872;BME280;36154;51.674;7.824;2023-05-10T03:13:13;99993.41;;;22.93;51.82
48872;BME280;36154;51.674;7.824;2023-05-10T03:15:58;99996.94;;;22.92;51.98
48872;BME280;36154;51.674;7.824;2023-05-10T03:18:51;99990.91;;;22.91;51.79
48872;BME280;36154;51.674;7.824;2023-05-10T03:21:20;99996.94;;;22.92;51.93
48872;BME280;36154;51.674;7.824;2023-05-10T03:23:59;100002.16;;;22.92;51.76
48872;BME280;36154;51.674;7.824;2023-05-10T03:26:28;100001.28;;;22.91;51.66
48872;BME280;36154;51.674;7.824;2023-05-10T03:28:55;99998.75;;;22.89;51.72
48872;BME280;36154;51.674;7.824;2023-05-10T03:31:21;100003.88;;;22.91;51.76
48872;BME280;36154;51.674;7.824;2023-05-10T03:33:50;100002.16;;;22.92;51.91
48872;BME280;36154;51.674;7.824;2023-05-10T03:36:15;100013.44;;;22.91;51.94
48872;BME280;36154;51.674;7.824;2023-05-10T03:38:41;100006.63;;;22.88;51.74
48872;BME280;36154;51.674;7.824;2023-05-10T03:41:06;100012.53;;;22.92;51.63
48872;BME280;36154;51.674;7.824;2023-05-10T03:43:31;100018.63;;;22.91;51.83
48872;BME280;36154;51.674;7.824;2023-05-10T03:45:57;100022.94;;;22.92;51.94
48872;BME280;36154;51.674;7.824;2023-05-10T03:48:22;100028.13;;;22.92;51.70
48872;BME280;36154;51.674;7.824;2023-05-10T03:50:47;100024.66;;;22.91;51.62
48872;BME280;36154;51.674;7.824;2023-05-10T03:53:14;100029.88;;;22.91;52.08
48872;BME280;36154;51.674;7.824;2023-05-10T03:55:39;100027.25;;;22.91;51.86
48872;BME280;36154;51.674;7.824;2023-05-10T03:58:05;100030.78;;;22.90;51.85
48872;BME280;36154;51.674;7.824;2023-05-10T04:00:30;100042.00;;;22.91;51.91
48872;BME280;36154;51.674;7.824;2023-05-10T04:02:55;100037.72;;;22.89;51.59
48872;BME280;36154;51.674;7.824;2023-05-10T04:05:21;100032.59;;;22.88;51.72
48872;BME280;36154;51.674;7.824;2023-05-10T04:07:46;100035.13;;;22.89;51.92
48872;BME280;36154;51.674;7.824;2023-05-10T04:10:12;100035.13;;;22.89;51.93
48872;BME280;36154;51.674;7.824;2023-05-10T04:12:37;100042.00;;;22.91;51.92
48872;BME280;36154;51.674;7.824;2023-05-10T04:15:03;100036.91;;;22.89;51.51
48872;BME280;36154;51.674;7.824;2023-05-10T04:17:28;100035.06;;;22.91;51.70
48872;BME280;36154;51.674;7.824;2023-05-10T04:19:54;100030.94;;;22.87;51.82
48872;BME280;36154;51.674;7.824;2023-05-10T04:22:20;100040.31;;;22.89;51.69
48872;BME280;36154;51.674;7.824;2023-05-10T04:24:45;100046.38;;;22.90;51.55
48872;BME280;36154;51.674;7.824;2023-05-10T04:27:10;100046.38;;;22.90;51.76
48872;BME280;36154;51.674;7.824;2023-05-10T04:29:36;100056.34;;;22.80;50.27
48872;BME280;36154;51.674;7.824;2023-05-10T04:32:02;100047.22;;;22.52;49.20
48872;BME280;36154;51.674;7.824;2023-05-10T04:34:27;100058.59;;;22.31;49.55
48872;BME280;36154;51.674;7.824;2023-05-10T04:36:52;100046.81;;;22.24;49.60
48872;BME280;36154;51.674;7.824;2023-05-10T04:39:17;100041.06;;;22.17;49.67
48872;BME280;36154;51.674;7.824;2023-05-10T04:41:43;100054.47;;;22.27;50.04
48872;BME280;36154;51.674;7.824;2023-05-10T04:44:08;100050.91;;;22.29;50.09
48872;BME280;36154;51.674;7.824;2023-05-10T04:46:33;100058.47;;;22.34;50.19
48872;BME280;36154;51.674;7.824;2023-05-10T04:48:59;100057.50;;;22.37;50.54
48872;BME280;36154;51.674;7.824;2023-05-10T04:51:24;100054.84;;;22.38;50.35
48872;BME280;36154;51.674;7.824;2023-05-10T04:53:49;100064.22;;;22.41;50.47
48872;BME280;36154;51.674;7.824;2023-05-10T04:56:14;100062.38;;;22.43;50.71
48872;BME280;36154;51.674;7.824;2023-05-10T04:58:41;100066.59;;;22.45;50.77
48872;BME280;36154;51.674;7.824;2023-05-10T05:01:07;100061.34;;;22.47;51.09
48872;BME280;36154;51.674;7.824;2023-05-10T05:03:33;100069.00;;;22.50;51.04
48872;BME280;36154;51.674;7.824;2023-05-10T05:06:01;100078.44;;;22.51;51.42
48872;BME280;36154;51.674;7.824;2023-05-10T05:08:26;100074.88;;;22.53;51.63
48872;BME280;36154;51.674;7.824;2023-05-10T05:10:52;100073.06;;;22.56;51.38
48872;BME280;36154;51.674;7.824;2023-05-10T05:13:17;100074.75;;;22.57;51.59
48872;BME280;36154;51.674;7.824;2023-05-10T05:15:42;100083.31;;;22.59;51.78
48872;BME280;36154;51.674;7.824;2023-05-10T05:18:08;100084.13;;;22.59;51.68
48872;BME280;36154;51.674;7.824;2023-05-10T05:20:33;100084.94;;;22.61;51.25
48872;BME280;36154;51.674;7.824;2023-05-10T05:23:01;100093.56;;;22.62;51.95
48872;BME280;36154;51.674;7.824;2023-05-10T05:25:27;100095.22;;;22.63;52.06
48872;BME280;36154;51.674;7.824;2023-05-10T05:27:52;100094.31;;;22.64;51.85
48872;BME280;36154;51.674;7.824;2023-05-10T05:30:17;100098.59;;;22.65;51.93
48872;BME280;36154;51.674;7.824;2023-05-10T05:32:43;100097.69;;;22.66;52.02
48872;BME280;36154;51.674;7.824;2023-05-10T05:35:08;100087.28;;;22.66;51.90
48872;BME280;36154;51.674;7.824;2023-05-10T05:37:33;100093.28;;;22.68;51.87
48872;BME280;36154;51.674;7.824;2023-05-10T05:39:59;100095.88;;;22.68;51.98
48872;BME280;36154;51.674;7.824;2023-05-10T05:42:26;100099.31;;;22.68;52.25
48872;BME280;36154;51.674;7.824;2023-05-10T05:44:51;100107.03;;;22.70;52.15
48872;BME280;36154;51.674;7.824;2023-05-10T05:47:16;100104.44;;;22.70;51.97
48872;BME280;36154;51.674;7.824;2023-05-10T05:49:42;100101.84;;;22.70;51.84
48872;BME280;36154;51.674;7.824;2023-05-10T05:52:10;100108.69;;;22.71;51.93
48872;BME280;36154;51.674;7.824;2023-05-10T05:54:35;100112.16;;;22.71;52.26
48872;BME280;36154;51.674;7.824;2023-05-10T05:57:01;100112.09;;;22.73;52.03
48872;BME280;36154;51.674;7.824;2023-05-10T05:59:26;100109.63;;;22.70;52.00
48872;BME280;36154;51.674;7.824;2023-05-10T06:01:55;100109.50;;;22.73;51.91
48872;BME280;36154;51.674;7.824;2023-05-10T06:04:20;100112.09;;;22.73;52.03
48872;BME280;36154;51.674;7.824;2023-05-10T06:06:45;100101.69;;;22.73;52.14
48872;BME280;36154;51.674;7.824;2023-05-10T06:09:11;100113.75;;;22.74;51.91
48872;BME280;36154;51.674;7.824;2023-05-10T06:11:36;100119.88;;;22.73;52.12
48872;BME280;36154;51.674;7.824;2023-05-10T06:14:03;100124.91;;;22.76;51.91
48872;BME280;36154;51.674;7.824;2023-05-10T06:16:33;100127.50;;;22.76;52.05
48872;BME280;36154;51.674;7.824;2023-05-10T06:18:58;100128.34;;;22.77;52.01
48872;BME280;36154;51.674;7.824;2023-05-10T06:21:23;100130.97;;;22.77;52.16
48872;BME280;36154;51.674;7.824;2023-05-10T06:23:49;100135.22;;;22.78;52.19
48872;BME280;36154;51.674;7.824;2023-05-10T06:26:14;100143.00;;;22.78;51.87
48872;BME280;36154;51.674;7.824;2023-05-10T06:28:39;100139.59;;;22.77;52.03
48872;BME280;36154;51.674;7.824;2023-05-10T06:31:05;100134.38;;;22.77;51.90
48872;BME280;36154;51.674;7.824;2023-05-10T06:33:31;100147.38;;;22.77;52.13
48872;BME280;36154;51.674;7.824;2023-05-10T06:35:56;100144.78;;;22.77;52.19
48872;BME280;36154;51.674;7.824;2023-05-10T06:38:22;100155.16;;;22.77;52.17
48872;BME280;36154;51.674;7.824;2023-05-10T06:40:47;100149.97;;;22.77;51.94
48872;BME280;36154;51.674;7.824;2023-05-10T06:43:13;100150.81;;;22.78;52.18
48872;BME280;36154;51.674;7.824;2023-05-10T06:45:38;100147.31;;;22.79;52.01
48872;BME280;36154;51.674;7.824;2023-05-10T06:48:03;100151.66;;;22.78;52.21
48872;BME280;36154;51.674;7.824;2023-05-10T06:50:29;100144.78;;;22.77;52.20
48872;BME280;36154;51.674;7.824;2023-05-10T06:52:56;100138.75;;;22.77;51.96
48872;BME280;36154;51.674;7.824;2023-05-10T06:55:21;100154.25;;;22.78;52.25
48872;BME280;36154;51.674;7.824;2023-05-10T06:57:47;100153.31;;;22.79;52.13
48872;BME280;36154;51.674;7.824;2023-05-10T07:00:13;100149.97;;;22.77;52.23
48872;BME280;36154;51.674;7.824;2023-05-10T07:02:38;100153.31;;;22.79;51.93
48872;BME280;36154;51.674;7.824;2023-05-10T07:05:04;100154.19;;;22.80;51.94
48872;BME280;36154;51.674;7.824;2023-05-10T07:07:30;100154.19;;;22.80;52.10
48872;BME280;36154;51.674;7.824;2023-05-10T07:09:55;100161.06;;;22.81;51.87
48872;BME280;36154;51.674;7.824;2023-05-10T07:12:22;100157.63;;;22.80;52.12
48872;BME280;36154;51.674;7.824;2023-05-10T07:14:47;100161.88;;;22.81;51.98
48872;BME280;36154;51.674;7.824;2023-05-10T07:17:13;100166.22;;;22.82;52.07
48872;BME280;36154;51.674;7.824;2023-05-10T07:19:38;100167.09;;;22.81;51.83
48872;BME280;36154;51.674;7.824;2023-05-10T07:22:03;100176.59;;;22.82;52.08
48872;BME280;36154;51.674;7.824;2023-05-10T07:24:28;100178.38;;;22.82;52.13
48872;BME280;36154;51.674;7.824;2023-05-10T07:26:54;100175.81;;;22.80;51.89
48872;BME280;36154;51.674;7.824;2023-05-10T07:29:19;100189.59;;;22.82;52.05
48872;BME280;36154;51.674;7.824;2023-05-10T07:31:44;100184.41;;;22.82;52.15
48872;BME280;36154;51.674;7.824;2023-05-10T07:34:10;100185.22;;;22.83;52.03
48872;BME280;36154;51.674;7.824;2023-05-10T07:36:35;100184.31;;;22.84;52.26
48872;BME280;36154;51.674;7.824;2023-05-10T07:39:00;100185.16;;;22.84;52.18
48872;BME280;36154;51.674;7.824;2023-05-10T07:41:26;100182.56;;;22.84;52.14
48872;BME280;36154;51.674;7.824;2023-05-10T07:43:52;100176.53;;;22.84;51.91
48872;BME280;36154;51.674;7.824;2023-05-10T07:46:17;100177.38;;;22.84;52.17
48872;BME280;36154;51.674;7.824;2023-05-10T07:48:44;100180.75;;;22.86;51.95
48872;BME280;36154;51.674;7.824;2023-05-10T07:51:09;100180.75;;;22.86;51.77
48872;BME280;36154;51.674;7.824;2023-05-10T07:53:35;100174.63;;;22.87;51.85
48872;BME280;36154;51.674;7.824;2023-05-10T07:56:20;100171.13;;;22.88;52.15
48872;BME280;36154;51.674;7.824;2023-05-10T07:58:46;100178.84;;;22.90;51.87
48872;BME280;36154;51.674;7.824;2023-05-10T08:01:11;100177.09;;;22.91;52.03
48872;BME280;36154;51.674;7.824;2023-05-10T08:03:36;100172.72;;;22.91;52.13
48872;BME280;36154;51.674;7.824;2023-05-10T08:06:01;100177.09;;;22.91;52.08
48872;BME280;36154;51.674;7.824;2023-05-10T08:08:27;100178.78;;;22.92;52.07
48872;BME280;36154;51.674;7.824;2023-05-10T08:10:52;100179.63;;;22.92;51.97
48872;BME280;36154;51.674;7.824;2023-05-10T08:13:17;100183.06;;;22.93;52.13
48872;BME280;36154;51.674;7.824;2023-05-10T08:15:43;100182.28;;;22.91;51.91
48872;BME280;36154;51.674;7.824;2023-05-10T08:18:08;100183.06;;;22.93;52.14
48872;BME280;36154;51.674;7.824;2023-05-10T08:20:33;100183.00;;;22.94;52.11
48872;BME280;36154;51.674;7.824;2023-05-10T08:22:59;100182.16;;;22.94;51.90
48872;BME280;36154;51.674;7.824;2023-05-10T08:25:24;100190.72;;;22.96;52.16
48872;BME280;36154;51.674;7.824;2023-05-10T08:27:49;100188.13;;;22.96;52.12
48872;BME280;36154;51.674;7.824;2023-05-10T08:30:15;100187.22;;;22.97;52.02
48872;BME280;36154;51.674;7.824;2023-05-10T08:32:40;100192.41;;;22.97;52.02
48872;BME280;36154;51.674;7.824;2023-05-10T08:35:06;100192.41;;;22.97;51.95
48872;BME280;36154;51.674;7.824;2023-05-10T08:37:31;100201.88;;;22.98;52.02
48872;BME280;36154;51.674;7.824;2023-05-10T08:39:58;100199.28;;;22.98;51.85
48872;BME280;36154;51.674;7.824;2023-05-10T08:42:25;100200.13;;;22.98;52.21
48872;BME280;36154;51.674;7.824;2023-05-10T08:44:53;100198.38;;;22.99;51.90
48872;BME280;36154;51.674;7.824;2023-05-10T08:47:19;100206.16;;;22.99;52.19
48872;BME280;36154;51.674;7.824;2023-05-10T08:49:47;100197.47;;;23.00;51.81
48872;BME280;36154;51.674;7.824;2023-05-10T08:52:15;100197.47;;;23.00;52.15
48872;BME280;36154;51.674;7.824;2023-05-10T08:54:42;100204.34;;;23.01;52.20
48872;BME280;36154;51.674;7.824;2023-05-10T08:57:07;100204.34;;;23.01;52.27
48872;BME280;36154;51.674;7.824;2023-05-10T08:59:33;100209.53;;;23.01;52.19
48872;BME280;36154;51.674;7.824;2023-05-10T09:01:58;100208.69;;;23.00;52.18
48872;BME280;36154;51.674;7.824;2023-05-10T09:04:25;100214.78;;;22.99;52.01
48872;BME280;36154;51.674;7.824;2023-05-10T09:06:50;100217.38;;;22.99;51.92
48872;BME280;36154;51.674;7.824;2023-05-10T09:09:17;100218.25;;;23.00;51.88
48872;BME280;36154;51.674;7.824;2023-05-10T09:11:43;100221.75;;;22.99;52.00
48872;BME280;36154;51.674;7.824;2023-05-10T09:14:09;100224.28;;;23.00;52.17
48872;BME280;36154;51.674;7.824;2023-05-10T09:16:34;100226.06;;;23.00;52.24
48872;BME280;36154;51.674;7.824;2023-05-10T09:18:59;100223.44;;;23.00;51.73
48872;BME280;36154;51.674;7.824;2023-05-10T09:21:25;100229.47;;;23.00;52.24
48872;BME280;36154;51.674;7.824;2023-05-10T09:23:50;100224.22;;;23.02;52.26
48872;BME280;36154;51.674;7.824;2023-05-10T09:26:22;100225.94;;;23.01;52.16
48872;BME280;36154;51.674;7.824;2023-05-10T09:28:56;100225.94;;;23.01;51.99
48872;BME280;36154;51.674;7.824;2023-05-10T09:31:22;100222.53;;;23.01;52.04
48872;BME280;36154;51.674;7.824;2023-05-10T09:33:48;100230.31;;;23.01;52.21
48872;BME280;36154;51.674;7.824;2023-05-10T09:36:14;100227.72;;;23.01;52.19
48872;BME280;36154;51.674;7.824;2023-05-10T09:38:47;100226.88;;;23.00;52.21
48872;BME280;36154;51.674;7.824;2023-05-10T09:41:22;100233.75;;;23.01;52.15
48872;BME280;36154;51.674;7.824;2023-05-10T09:43:48;100228.47;;;23.03;52.13
48872;BME280;36154;51.674;7.824;2023-05-10T09:46:15;100212.13;;;23.01;52.06
48872;BME280;36154;51.674;7.824;2023-05-10T09:48:47;100229.34;;;23.03;52.33
48872;BME280;36154;51.674;7.824;2023-05-10T09:51:20;100235.38;;;23.04;51.92
48872;BME280;36154;51.674;7.824;2023-05-10T09:53:45;100233.59;;;23.04;52.11
48872;BME280;36154;51.674;7.824;2023-05-10T09:56:11;100245.75;;;23.04;51.84
48872;BME280;36154;51.674;7.824;2023-05-10T09:58:37;100241.47;;;23.03;52.21
48872;BME280;36154;51.674;7.824;2023-05-10T10:01:10;100249.19;;;23.04;52.24
48872;BME280;36154;51.674;7.824;2023-05-10T10:03:41;100243.16;;;23.04;51.77
48872;BME280;36154;51.674;7.824;2023-05-10T10:06:07;100251.72;;;23.06;51.94
48872;BME280;36154;51.674;7.824;2023-05-10T10:08:33;100254.31;;;23.06;51.86
48872;BME280;36154;51.674;7.824;2023-05-10T10:10:59;100247.28;;;23.08;51.93
48872;BME280;36154;51.674;7.824;2023-05-10T10:13:24;100249.00;;;23.09;52.06
48872;BME280;36154;51.674;7.824;2023-05-10T10:15:51;100251.59;;;23.09;52.22
48872;BME280;36154;51.674;7.824;2023-05-10T10:18:17;100259.41;;;23.09;51.97
48872;BME280;36154;51.674;7.824;2023-05-10T10:20:42;100252.50;;;23.08;51.92
48872;BME280;36154;51.674;7.824;2023-05-10T10:23:08;100254.31;;;23.06;52.12
48872;BME280;36154;51.674;7.824;2023-05-10T10:25:33;100256.78;;;23.09;51.87
48872;BME280;36154;51.674;7.824;2023-05-10T10:28:23;100241.28;;;23.07;52.21
48872;BME280;36154;51.674;7.824;2023-05-10T10:30:51;100243.81;;;23.09;51.88
48872;BME280;36154;51.674;7.824;2023-05-10T10:33:51;100251.59;;;23.09;51.99
48872;BME280;36154;51.674;7.824;2023-05-10T10:36:20;100251.53;;;23.11;52.16
48872;BME280;36154;51.674;7.824;2023-05-10T10:41:27;100241.97;;;23.11;52.34
48872;BME280;36154;51.674;7.824;2023-05-10T11:00:31;100245.88;;;23.20;52.20
48872;BME280;36154;51.674;7.824;2023-05-10T11:02:59;100245.88;;;23.20;52.35
48872;BME280;36154;51.674;7.824;2023-05-10T11:07:57;100243.38;;;23.18;52.17
48872;BME280;36154;51.674;7.824;2023-05-10T11:10:24;100255.25;;;23.24;51.91
48872;BME280;36154;51.674;7.824;2023-05-10T11:13:03;100250.06;;;23.24;52.28
48872;BME280;36154;51.674;7.824;2023-05-10T11:15:40;100252.56;;;23.25;51.76
48872;BME280;36154;51.674;7.824;2023-05-10T11:18:16;100243.09;;;23.24;51.88
48872;BME280;36154;51.674;7.824;2023-05-10T11:20:42;100257.00;;;23.23;51.99
48872;BME280;36154;51.674;7.824;2023-05-10T11:23:12;100249.97;;;23.25;52.16
48872;BME280;36154;51.674;7.824;2023-05-10T11:25:44;100247.31;;;23.27;51.91
48872;BME280;36154;51.674;7.824;2023-05-10T11:28:10;100248.16;;;23.27;52.02
48872;BME280;36154;51.674;7.824;2023-05-10T11:30:37;100247.19;;;23.30;52.24
48872;BME280;36154;51.674;7.824;2023-05-10T11:33:03;100264.44;;;23.31;52.06
48872;BME280;36154;51.674;7.824;2023-05-10T11:35:28;100258.34;;;23.32;52.14
48872;BME280;36154;51.674;7.824;2023-05-10T11:37:53;100261.78;;;23.33;52.14
48872;BME280;36154;51.674;7.824;2023-05-10T11:40:18;100261.78;;;23.33;51.68
48872;BME280;36154;51.674;7.824;2023-05-10T11:42:46;100257.56;;;23.30;52.27
48872;BME280;36154;51.674;7.824;2023-05-10T11:45:11;100263.53;;;23.32;51.85
48872;BME280;36154;51.674;7.824;2023-05-10T11:47:36;100274.00;;;23.31;52.32
48872;BME280;36154;51.674;7.824;2023-05-10T11:50:02;100280.09;;;23.30;52.07
48872;BME280;36154;51.674;7.824;2023-05-10T11:52:27;100293.16;;;23.28;52.24
48872;BME280;36154;51.674;7.824;2023-05-10T11:54:54;100298.44;;;23.26;52.24
48872;BME280;36154;51.674;7.824;2023-05-10T11:57:20;100288.97;;;23.25;51.97
48872;BME280;36154;51.674;7.824;2023-05-10T11:59:47;100293.41;;;23.23;52.06
48872;BME280;36154;51.674;7.824;2023-05-10T12:02:15;100290.00;;;23.21;51.94
48872;BME280;36154;51.674;7.824;2023-05-10T12:04:41;100296.00;;;23.23;52.32
48872;BME280;36154;51.674;7.824;2023-05-10T12:07:06;100303.81;;;23.23;52.07
48872;BME280;36154;51.674;7.824;2023-05-10T12:09:32;100305.47;;;23.24;52.11
48872;BME280;36154;51.674;7.824;2023-05-10T12:11:57;100306.34;;;23.25;52.05
48872;BME280;36154;51.674;7.824;2023-05-10T12:14:24;100310.59;;;23.26;52.13
48872;BME280;36154;51.674;7.824;2023-05-10T12:16:50;100314.03;;;23.26;51.99
48872;BME280;36154;51.674;7.824;2023-05-10T12:19:19;100304.50;;;23.27;51.98
48872;BME280;36154;51.674;7.824;2023-05-10T12:21:47;100313.06;;;23.29;51.99
48872;BME280;36154;51.674;7.824;2023-05-10T12:24:13;100313.91;;;23.30;51.84
48872;BME280;36154;51.674;7.824;2023-05-10T12:26:41;100313.00;;;23.31;51.80
48872;BME280;36154;51.674;7.824;2023-05-10T12:29:14;100303.50;;;23.30;51.86
48872;BME280;36154;51.674;7.824;2023-05-10T12:31:55;100301.69;;;23.32;51.98
48872;BME280;36154;51.674;7.824;2023-05-10T12:34:30;100304.13;;;23.35;51.96
48872;BME280;36154;51.674;7.824;2023-05-10T12:36:56;100304.13;;;23.35;50.71
48872;BME280;36154;51.674;7.824;2023-05-10T12:39:21;100314.81;;;23.29;49.75
48872;BME280;36154;51.674;7.824;2023-05-10T12:41:46;100307.56;;;23.16;49.39
48872;BME280;36154;51.674;7.824;2023-05-10T12:44:12;100310.47;;;23.10;49.13
48872;BME280;36154;51.674;7.824;2023-05-10T12:46:37;100300.41;;;23.02;48.88
48872;BME280;36154;51.674;7.824;2023-05-10T12:49:03;100307.69;;;22.94;48.72
48872;BME280;36154;51.674;7.824;2023-05-10T12:51:28;100307.31;;;22.83;47.98
48872;BME280;36154;51.674;7.824;2023-05-10T12:53:53;100307.69;;;22.74;47.68
48872;BME280;36154;51.674;7.824;2023-05-10T12:56:19;100311.53;;;22.65;47.48
48872;BME280;36154;51.674;7.824;2023-05-10T12:58:45;100323.00;;;22.59;47.23
48872;BME280;36154;51.674;7.824;2023-05-10T13:01:14;100305.19;;;22.51;46.93
48872;BME280;36154;51.674;7.824;2023-05-10T13:03:39;100310.63;;;22.45;47.19
48872;BME280;36154;51.674;7.824;2023-05-10T13:06:05;100313.34;;;22.42;46.98
48872;BME280;36154;51.674;7.824;2023-05-10T13:08:31;100321.13;;;22.42;47.14
48872;BME280;36154;51.674;7.824;2023-05-10T13:10:59;100319.31;;;22.44;46.76
48872;BME280;36154;51.674;7.824;2023-05-10T13:13:26;100331.38;;;22.45;46.88
48872;BME280;36154;51.674;7.824;2023-05-10T13:15:51;100334.88;;;22.44;46.69
48872;BME280;36154;51.674;7.824;2023-05-10T13:18:17;100325.66;;;22.37;45.64
48872;BME280;36154;51.674;7.824;2023-05-10T13:20:42;100317.63;;;22.23;45.30
48872;BME280;36154;51.674;7.824;2023-05-10T13:23:09;100313.69;;;22.12;45.14